Airfield :
LOGIN :

Register | Disclaimer

   EN    FR    IT 

 










Legend :    VFR   Marginal VFR   IFR   Intensive IFR   Very Intensive IFR
Visi :
Ceiling :
>= 8 km
>= 3000ft
5 to 8 km
1000 to 3000 ft
1500m to 5 km
500 to 1000 ft
800 to 1500m
200 to 500 ft
< 800m
< 200 ft
Symbols :   Thunderstorms  Fog  Heavy snow  Heavy precipitations  Wind > 20 kt
SIGMETs :     Misc.  Thunderstorms  Icing  Turbulence  Mountain Waves  Volcanic Ashes






- Airport Elevation : 70 ft
- IATA code : LEI


LEAM - Almeria

CURRENT METAR :
  • 190800Z 18005KT 100V220 CAVOK 22/17 Q1014

EXPIRED METARs :
  • 190730Z VRB02KT CAVOK 22/16 Q1014
  • 190700Z 10004KT 060V140 CAVOK 22/16 Q1014
  • 190630Z 07006KT 030V090 CAVOK 21/16 Q1013
  • 190600Z VRB02KT CAVOK 20/16 Q1014
  • 190530Z 13004KT 080V160 CAVOK 20/16 Q1013

TAF TAF LEAM
Valid from the 19 at 06:00 until the 20 at 06:00 UTC


190500Z 1906/2006 VRB02KT CAVOK TX26/1911Z TN19/1906Z
BECMG 1909/1911 24015KT
PROB40
TEMPO 1915/1923 24020G30KT



MET'MAP, your aeronautical weather chart ! - Copyright ORBIFLY December 2007 - Disclaimer

ORBIFLY MET'MAP TEAM :

Programming & Development : Alexandra Zaïnal
Concept & original design : Baudouin d'Aumeries
Assistance for programming : Marc-Olivier Méhu
Technical & hardware support : Manuel Goepfert

Contact : metmap@orbifly.com




SOURCES & CREDITS :

   NOAA